sensor_id;sensor_type;location;lat;lon;timestamp;P1;durP1;ratioP1;P2;durP2;ratioP2
27899;SDS011;15243;50.726;7.080;2023-04-03T15:41:55;4.25;;;1.13;;
27899;SDS011;15243;50.726;7.080;2023-04-03T15:44:26;2.60;;;1.00;;
27899;SDS011;15243;50.726;7.080;2023-04-03T15:46:52;4.82;;;2.20;;
27899;SDS011;15243;50.726;7.080;2023-04-03T15:52:14;3.63;;;1.50;;
27899;SDS011;15243;50.726;7.080;2023-04-03T15:54:40;3.70;;;1.50;;
27899;SDS011;15243;50.726;7.080;2023-04-03T15:57:06;3.75;;;1.33;;
27899;SDS011;15243;50.726;7.080;2023-04-03T15:59:33;3.30;;;1.27;;
27899;SDS011;15243;50.726;7.080;2023-04-03T16:02:00;3.50;;;1.13;;
27899;SDS011;15243;50.726;7.080;2023-04-03T16:04:30;2.30;;;1.10;;
27899;SDS011;15243;50.726;7.080;2023-04-03T16:06:57;3.78;;;1.33;;
27899;SDS011;15243;50.726;7.080;2023-04-03T16:09:28;2.47;;;1.20;;
27899;SDS011;15243;50.726;7.080;2023-04-03T16:11:55;2.67;;;1.20;;
27899;SDS011;15243;50.726;7.080;2023-04-03T16:14:22;5.00;;;1.35;;
27899;SDS011;15243;50.726;7.080;2023-04-03T16:16:49;2.72;;;1.02;;
27899;SDS011;15243;50.726;7.080;2023-04-03T16:19:16;3.85;;;1.40;;
27899;SDS011;15243;50.726;7.080;2023-04-03T16:21:43;2.72;;;1.30;;
27899;SDS011;15243;50.726;7.080;2023-04-03T16:24:10;2.95;;;1.25;;
27899;SDS011;15243;50.726;7.080;2023-04-03T16:26:37;3.15;;;1.20;;
27899;SDS011;15243;50.726;7.080;2023-04-03T16:29:04;4.47;;;1.45;;
27899;SDS011;15243;50.726;7.080;2023-04-03T16:31:31;3.20;;;1.27;;
27899;SDS011;15243;50.726;7.080;2023-04-03T16:33:59;3.33;;;1.13;;
27899;SDS011;15243;50.726;7.080;2023-04-03T16:36:26;3.58;;;1.48;;
27899;SDS011;15243;50.726;7.080;2023-04-03T16:38:54;3.17;;;1.05;;
27899;SDS011;15243;50.726;7.080;2023-04-03T16:41:21;4.30;;;1.30;;
27899;SDS011;15243;50.726;7.080;2023-04-03T16:43:48;3.33;;;1.17;;
27899;SDS011;15243;50.726;7.080;2023-04-03T16:46:16;7.35;;;1.00;;
27899;SDS011;15243;50.726;7.080;2023-04-03T16:48:43;5.25;;;1.20;;
27899;SDS011;15243;50.726;7.080;2023-04-03T16:51:11;4.82;;;1.10;;
27899;SDS011;15243;50.726;7.080;2023-04-03T16:53:39;3.78;;;1.20;;
27899;SDS011;15243;50.726;7.080;2023-04-03T16:56:05;4.45;;;1.20;;
27899;SDS011;15243;50.726;7.080;2023-04-03T16:58:32;4.95;;;1.50;;
27899;SDS011;15243;50.726;7.080;2023-04-03T17:01:07;3.10;;;1.50;;
27899;SDS011;15243;50.726;7.080;2023-04-03T17:03:36;6.05;;;1.55;;
27899;SDS011;15243;50.726;7.080;2023-04-03T17:06:03;4.43;;;1.30;;
27899;SDS011;15243;50.726;7.080;2023-04-03T17:08:30;5.10;;;1.30;;
27899;SDS011;15243;50.726;7.080;2023-04-03T17:10:57;2.67;;;1.10;;
27899;SDS011;15243;50.726;7.080;2023-04-03T17:13:24;3.72;;;1.10;;
27899;SDS011;15243;50.726;7.080;2023-04-03T17:15:57;4.63;;;1.20;;
27899;SDS011;15243;50.726;7.080;2023-04-03T17:18:24;3.40;;;1.38;;
27899;SDS011;15243;50.726;7.080;2023-04-03T17:20:53;3.55;;;1.10;;
27899;SDS011;15243;50.726;7.080;2023-04-03T17:23:23;3.58;;;1.20;;
27899;SDS011;15243;50.726;7.080;2023-04-03T17:25:51;4.57;;;1.10;;
27899;SDS011;15243;50.726;7.080;2023-04-03T17:28:21;2.90;;;1.20;;
27899;SDS011;15243;50.726;7.080;2023-04-03T17:30:54;2.42;;;1.10;;
27899;SDS011;15243;50.726;7.080;2023-04-03T17:33:22;3.92;;;1.10;;
27899;SDS011;15243;50.726;7.080;2023-04-03T17:35:49;3.55;;;1.75;;
27899;SDS011;15243;50.726;7.080;2023-04-03T17:38:17;6.30;;;1.50;;
27899;SDS011;15243;50.726;7.080;2023-04-03T17:40:43;3.15;;;1.10;;
27899;SDS011;15243;50.726;7.080;2023-04-03T17:43:11;5.72;;;1.60;;
27899;SDS011;15243;50.726;7.080;2023-04-03T17:45:38;4.07;;;1.20;;
27899;SDS011;15243;50.726;7.080;2023-04-03T18:06:52;2.25;;;1.10;;
27899;SDS011;15243;50.726;7.080;2023-04-03T18:09:26;3.03;;;1.27;;
27899;SDS011;15243;50.726;7.080;2023-04-03T18:11:57;3.17;;;1.30;;
27899;SDS011;15243;50.726;7.080;2023-04-03T18:14:28;2.97;;;1.23;;
27899;SDS011;15243;50.726;7.080;2023-04-03T18:16:56;6.13;;;1.48;;
27899;SDS011;15243;50.726;7.080;2023-04-03T18:19:23;2.60;;;1.27;;
27899;SDS011;15243;50.726;7.080;2023-04-03T18:21:55;3.80;;;1.45;;
27899;SDS011;15243;50.726;7.080;2023-04-03T18:24:25;5.72;;;1.20;;
27899;SDS011;15243;50.726;7.080;2023-04-03T18:26:54;4.72;;;1.35;;
27899;SDS011;15243;50.726;7.080;2023-04-03T18:29:25;5.63;;;1.10;;
27899;SDS011;15243;50.726;7.080;2023-04-03T18:31:56;2.00;;;1.13;;
27899;SDS011;15243;50.726;7.080;2023-04-03T18:34:25;5.80;;;1.38;;
27899;SDS011;15243;50.726;7.080;2023-04-03T18:36:54;2.70;;;1.45;;
27899;SDS011;15243;50.726;7.080;2023-04-03T18:39:22;5.22;;;2.05;;
27899;SDS011;15243;50.726;7.080;2023-04-03T18:41:52;6.63;;;1.63;;
27899;SDS011;15243;50.726;7.080;2023-04-03T18:44:21;4.70;;;1.92;;
27899;SDS011;15243;50.726;7.080;2023-04-03T18:46:51;10.77;;;1.63;;
27899;SDS011;15243;50.726;7.080;2023-04-03T18:49:19;2.67;;;1.35;;
27899;SDS011;15243;50.726;7.080;2023-04-03T18:51:49;3.13;;;1.50;;
27899;SDS011;15243;50.726;7.080;2023-04-03T18:54:16;5.20;;;1.52;;
27899;SDS011;15243;50.726;7.080;2023-04-03T18:56:45;5.13;;;1.45;;
27899;SDS011;15243;50.726;7.080;2023-04-03T18:59:13;4.70;;;1.50;;
27899;SDS011;15243;50.726;7.080;2023-04-03T19:01:49;4.85;;;1.95;;
27899;SDS011;15243;50.726;7.080;2023-04-03T19:04:16;3.05;;;1.42;;
27899;SDS011;15243;50.726;7.080;2023-04-03T19:06:47;5.97;;;1.80;;
27899;SDS011;15243;50.726;7.080;2023-04-03T19:09:15;5.55;;;1.95;;
27899;SDS011;15243;50.726;7.080;2023-04-03T19:11:44;5.95;;;1.90;;
27899;SDS011;15243;50.726;7.080;2023-04-03T19:14:11;4.35;;;1.52;;
27899;SDS011;15243;50.726;7.080;2023-04-03T19:16:42;5.93;;;1.90;;
27899;SDS011;15243;50.726;7.080;2023-04-03T19:19:10;3.95;;;1.63;;
27899;SDS011;15243;50.726;7.080;2023-04-03T19:21:38;6.22;;;1.83;;
27899;SDS011;15243;50.726;7.080;2023-04-03T19:24:10;4.95;;;1.90;;
27899;SDS011;15243;50.726;7.080;2023-04-03T19:26:39;2.85;;;1.60;;
27899;SDS011;15243;50.726;7.080;2023-04-03T19:29:09;3.30;;;1.50;;
27899;SDS011;15243;50.726;7.080;2023-04-03T19:31:37;4.80;;;1.90;;
27899;SDS011;15243;50.726;7.080;2023-04-03T19:34:05;4.90;;;1.80;;
27899;SDS011;15243;50.726;7.080;2023-04-03T19:36:34;6.97;;;1.85;;
27899;SDS011;15243;50.726;7.080;2023-04-03T19:39:02;4.78;;;1.58;;
27899;SDS011;15243;50.726;7.080;2023-04-03T19:41:30;5.50;;;2.17;;
27899;SDS011;15243;50.726;7.080;2023-04-03T19:44:01;3.92;;;1.73;;
27899;SDS011;15243;50.726;7.080;2023-04-03T19:46:32;3.33;;;1.75;;
27899;SDS011;15243;50.726;7.080;2023-04-03T19:48:59;3.67;;;1.92;;
27899;SDS011;15243;50.726;7.080;2023-04-03T19:51:27;6.70;;;2.55;;
27899;SDS011;15243;50.726;7.080;2023-04-03T19:53:55;4.63;;;2.47;;
27899;SDS011;15243;50.726;7.080;2023-04-03T19:56:24;6.20;;;1.90;;
27899;SDS011;15243;50.726;7.080;2023-04-03T19:58:59;3.53;;;2.13;;
27899;SDS011;15243;50.726;7.080;2023-04-03T20:01:28;4.32;;;1.98;;
27899;SDS011;15243;50.726;7.080;2023-04-03T20:04:00;4.28;;;1.80;;
27899;SDS011;15243;50.726;7.080;2023-04-03T20:06:31;4.97;;;1.80;;
27899;SDS011;15243;50.726;7.080;2023-04-03T20:08:58;7.95;;;1.60;;
27899;SDS011;15243;50.726;7.080;2023-04-03T20:11:28;5.18;;;1.75;;
27899;SDS011;15243;50.726;7.080;2023-04-03T20:13:55;3.90;;;1.75;;
27899;SDS011;15243;50.726;7.080;2023-04-03T20:16:22;4.35;;;1.80;;
27899;SDS011;15243;50.726;7.080;2023-04-03T20:18:52;6.95;;;2.30;;
27899;SDS011;15243;50.726;7.080;2023-04-03T20:21:29;5.00;;;2.10;;
27899;SDS011;15243;50.726;7.080;2023-04-03T20:23:58;7.18;;;2.20;;
27899;SDS011;15243;50.726;7.080;2023-04-03T20:26:29;6.35;;;2.30;;
27899;SDS011;15243;50.726;7.080;2023-04-03T20:28:57;4.50;;;2.03;;
27899;SDS011;15243;50.726;7.080;2023-04-03T20:31:26;6.90;;;2.47;;
27899;SDS011;15243;50.726;7.080;2023-04-03T20:33:55;8.18;;;2.50;;
27899;SDS011;15243;50.726;7.080;2023-04-03T20:36:28;3.90;;;2.00;;
27899;SDS011;15243;50.726;7.080;2023-04-03T20:38:56;5.13;;;2.00;;
27899;SDS011;15243;50.726;7.080;2023-04-03T20:41:23;4.82;;;1.95;;
27899;SDS011;15243;50.726;7.080;2023-04-03T20:43:51;5.22;;;2.30;;
27899;SDS011;15243;50.726;7.080;2023-04-03T20:46:18;8.68;;;2.28;;
27899;SDS011;15243;50.726;7.080;2023-04-03T20:48:46;7.97;;;2.20;;
27899;SDS011;15243;50.726;7.080;2023-04-03T20:51:16;5.90;;;2.10;;
27899;SDS011;15243;50.726;7.080;2023-04-03T20:53:45;5.75;;;2.05;;
27899;SDS011;15243;50.726;7.080;2023-04-03T20:56:13;3.95;;;1.77;;
27899;SDS011;15243;50.726;7.080;2023-04-03T20:58:42;7.30;;;1.80;;
27899;SDS011;15243;50.726;7.080;2023-04-03T21:01:21;6.82;;;2.08;;
27899;SDS011;15243;50.726;7.080;2023-04-03T21:03:50;5.65;;;1.90;;
27899;SDS011;15243;50.726;7.080;2023-04-03T21:20:39;6.30;;;1.85;;
27899;SDS011;15243;50.726;7.080;2023-04-03T21:23:06;7.60;;;1.98;;
27899;SDS011;15243;50.726;7.080;2023-04-03T21:25:34;8.18;;;2.13;;
27899;SDS011;15243;50.726;7.080;2023-04-03T21:28:01;4.20;;;1.98;;
27899;SDS011;15243;50.726;7.080;2023-04-03T21:30:32;6.78;;;2.20;;
27899;SDS011;15243;50.726;7.080;2023-04-03T21:32:59;4.13;;;1.80;;
27899;SDS011;15243;50.726;7.080;2023-04-03T21:35:28;9.18;;;2.20;;
27899;SDS011;15243;50.726;7.080;2023-04-03T21:37:56;5.05;;;2.03;;
27899;SDS011;15243;50.726;7.080;2023-04-03T21:40:24;5.05;;;2.28;;
27899;SDS011;15243;50.726;7.080;2023-04-03T21:42:52;4.05;;;1.88;;
27899;SDS011;15243;50.726;7.080;2023-04-03T21:45:20;4.70;;;1.88;;
27899;SDS011;15243;50.726;7.080;2023-04-03T21:47:47;3.75;;;1.75;;
27899;SDS011;15243;50.726;7.080;2023-04-03T21:50:14;5.70;;;1.98;;
27899;SDS011;15243;50.726;7.080;2023-04-03T21:52:42;5.97;;;1.75;;
27899;SDS011;15243;50.726;7.080;2023-04-03T21:55:09;10.05;;;2.53;;
27899;SDS011;15243;50.726;7.080;2023-04-03T21:57:37;7.90;;;2.75;;
27899;SDS011;15243;50.726;7.080;2023-04-03T22:00:05;6.22;;;2.47;;
27899;SDS011;15243;50.726;7.080;2023-04-03T22:02:39;2.97;;;1.95;;
27899;SDS011;15243;50.726;7.080;2023-04-03T22:05:08;6.25;;;2.00;;
27899;SDS011;15243;50.726;7.080;2023-04-03T22:07:35;4.70;;;2.38;;
27899;SDS011;15243;50.726;7.080;2023-04-03T22:10:03;5.50;;;2.00;;
27899;SDS011;15243;50.726;7.080;2023-04-03T22:12:30;7.05;;;2.20;;
27899;SDS011;15243;50.726;7.080;2023-04-03T22:14:57;5.75;;;2.13;;
27899;SDS011;15243;50.726;7.080;2023-04-03T22:17:28;6.45;;;2.05;;
27899;SDS011;15243;50.726;7.080;2023-04-03T22:19:56;5.75;;;2.08;;
27899;SDS011;15243;50.726;7.080;2023-04-03T22:22:24;6.55;;;2.00;;
27899;SDS011;15243;50.726;7.080;2023-04-03T22:24:52;5.30;;;2.90;;
27899;SDS011;15243;50.726;7.080;2023-04-03T22:27:19;10.52;;;2.65;;
27899;SDS011;15243;50.726;7.080;2023-04-03T22:29:46;8.63;;;2.75;;
27899;SDS011;15243;50.726;7.080;2023-04-03T22:32:13;9.35;;;2.50;;
27899;SDS011;15243;50.726;7.080;2023-04-03T22:34:41;8.35;;;2.38;;
27899;SDS011;15243;50.726;7.080;2023-04-03T22:37:08;5.30;;;2.17;;
27899;SDS011;15243;50.726;7.080;2023-04-03T22:39:34;10.10;;;2.50;;
27899;SDS011;15243;50.726;7.080;2023-04-03T22:42:01;5.35;;;2.20;;
27899;SDS011;15243;50.726;7.080;2023-04-03T22:44:30;6.82;;;2.53;;
27899;SDS011;15243;50.726;7.080;2023-04-03T22:47:01;5.97;;;2.38;;
27899;SDS011;15243;50.726;7.080;2023-04-03T22:49:29;7.85;;;2.50;;
27899;SDS011;15243;50.726;7.080;2023-04-03T22:51:57;7.55;;;2.60;;
27899;SDS011;15243;50.726;7.080;2023-04-03T22:54:24;7.05;;;2.78;;
27899;SDS011;15243;50.726;7.080;2023-04-03T22:56:53;10.43;;;2.33;;
27899;SDS011;15243;50.726;7.080;2023-04-03T22:59:20;5.22;;;1.95;;
27899;SDS011;15243;50.726;7.080;2023-04-03T23:01:47;7.85;;;2.42;;
27899;SDS011;15243;50.726;7.080;2023-04-03T23:04:14;7.63;;;3.28;;
27899;SDS011;15243;50.726;7.080;2023-04-03T23:06:42;8.32;;;2.90;;
27899;SDS011;15243;50.726;7.080;2023-04-03T23:09:09;6.38;;;2.20;;
27899;SDS011;15243;50.726;7.080;2023-04-03T23:11:36;5.13;;;2.28;;
27899;SDS011;15243;50.726;7.080;2023-04-03T23:14:03;8.05;;;2.95;;
27899;SDS011;15243;50.726;7.080;2023-04-03T23:16:31;12.88;;;3.20;;
27899;SDS011;15243;50.726;7.080;2023-04-03T23:18:58;6.65;;;2.45;;
27899;SDS011;15243;50.726;7.080;2023-04-03T23:21:25;7.10;;;2.80;;
27899;SDS011;15243;50.726;7.080;2023-04-03T23:23:53;4.93;;;2.60;;
27899;SDS011;15243;50.726;7.080;2023-04-03T23:26:20;6.07;;;2.50;;
27899;SDS011;15243;50.726;7.080;2023-04-03T23:28:46;7.38;;;2.75;;
27899;SDS011;15243;50.726;7.080;2023-04-03T23:31:13;6.68;;;2.88;;
27899;SDS011;15243;50.726;7.080;2023-04-03T23:33:40;10.05;;;2.88;;
27899;SDS011;15243;50.726;7.080;2023-04-03T23:36:09;6.53;;;2.30;;
27899;SDS011;15243;50.726;7.080;2023-04-03T23:38:39;8.85;;;2.58;;
27899;SDS011;15243;50.726;7.080;2023-04-03T23:41:08;6.00;;;2.50;;
27899;SDS011;15243;50.726;7.080;2023-04-03T23:43:35;6.60;;;2.30;;
27899;SDS011;15243;50.726;7.080;2023-04-03T23:46:02;4.82;;;2.38;;
27899;SDS011;15243;50.726;7.080;2023-04-03T23:48:30;5.70;;;2.78;;
27899;SDS011;15243;50.726;7.080;2023-04-03T23:50:57;5.65;;;2.65;;
27899;SDS011;15243;50.726;7.080;2023-04-03T23:53:24;11.27;;;3.35;;
27899;SDS011;15243;50.726;7.080;2023-04-03T23:55:51;6.18;;;2.88;;
27899;SDS011;15243;50.726;7.080;2023-04-03T23:58:18;6.70;;;2.47;;
